Estació municipal de Seva (Osona, P.N. del Montseny)

Consulta les dades en temps real de l'estació municipal de Seva





Hora UTC 03:00
Temperatura 19.8 ºC
Sòl 15 cm 17.8 ºC
Humitat 80.1 %
Pressió 1024.7 hPa
Pluja 0.0 mm
Velocitat vent 2.6 km/h
Direcció vent N
Radiació solar 0.1 W/m²

Webcam

Dades diàries 2026-09-05



Hora UTC (hivern +1h; estiu +2h)
Temperatura (ºC) Humitat (%) Pressió (hPa) Velocitat vent (km/h) Precipitació (mm) Radiació solar (W/m²)
Hora UTC Aire Sòl 15 cm Humitat Pressió Vel. Dir. Vel. Max Dir. Intent. màx 5 min. Rad. Sol.
00:05 21.3 19.3 76.2 1024.9 1.4 NE 1.4 ENE 0.0 0.1
00:10 21.2 19.2 76.4 1024.9 2.2 ENE 3.5 NE 0.0 0.1
00:15 21.1 19.2 76.8 1024.9 2.9 NE 4.2 NE 0.0 0.1
00:20 21.0 19.1 76.9 1024.9 2.9 ENE 3.9 E 0.0 0.1
00:25 20.9 19.1 76.9 1024.9 4.4 ENE 4.9 E 0.0 0.0
00:30 20.8 19.0 77.4 1024.9 3.5 E 4.2 E 0.0 0.0
00:35 20.8 18.9 77.9 1024.9 4.2 E 4.9 E 0.0 0.1
00:40 20.7 18.8 77.8 1024.9 4.5 E 6.0 E 0.0 0.1
00:45 20.7 18.8 78.0 1024.8 5.7 E 7.4 E 0.0 0.0
00:50 20.8 18.8 77.6 1024.8 5.5 ENE 7.1 E 0.0 0.1
00:55 20.8 18.8 77.4 1024.8 4.3 E 5.6 E 0.0 0.0
01:00 20.7 18.7 77.9 1024.7 3.7 E 4.6 ENE 0.0 0.1
01:05 20.6 18.6 78.3 1024.7 3.1 E 4.2 E 0.0 0.1
01:10 20.6 18.6 78.7 1024.7 3.2 E 4.6 E 0.0 0.0
01:15 20.6 18.7 78.6 1024.7 3.5 E 4.9 E 0.0 0.0
01:20 20.6 18.6 78.5 1024.8 1.1 E 3.2 E 0.0 0.1
01:25 20.4 18.5 79.0 1024.8 1.6 E 2.8 ESE 0.0 0.1
01:30 20.4 18.4 79.4 1024.8 0.9 ESE 3.5 ENE 0.0 0.1
01:35 20.3 18.2 80.0 1024.8 2.6 ENE 5.6 ENE 0.0 0.1
01:40 20.3 18.2 80.0 1024.8 3.0 ENE 3.9 E 0.0 0.0
01:45 20.3 18.2 80.0 1024.7 4.1 NE 5.6 NE 0.0 0.1
01:50 20.3 18.3 79.9 1024.7 5.0 ENE 6.4 ENE 0.0 0.0
01:55 20.3 18.3 79.8 1024.7 4.6 ENE 5.6 ENE 0.0 0.0
02:00 20.2 18.3 79.8 1024.7 4.6 ENE 5.6 ENE 0.0 0.0
02:05 20.2 18.3 79.5 1024.8 5.5 ENE 6.4 ENE 0.0 0.0
02:10 20.2 18.3 79.4 1024.8 3.9 E 5.3 E 0.0 0.1
02:15 20.3 18.2 79.2 1024.8 3.9 E 5.3 ENE 0.0 0.1
02:20 20.2 18.2 79.2 1024.7 5.6 E 7.4 ENE 0.0 0.1
02:25 20.3 18.3 78.6 1024.7 5.9 E 7.1 E 0.0 0.0
02:30 20.2 18.3 78.7 1024.7 5.0 E 6.7 ENE 0.0 0.1
02:35 20.3 18.2 78.7 1024.7 3.5 E 4.9 ENE 0.0 0.1
02:40 20.2 18.2 78.7 1024.7 3.5 ENE 3.9 ENE 0.0 0.1
02:45 20.2 18.1 78.7 1024.6 2.0 E 4.6 ENE 0.0 0.1
02:50 20.0 18.1 79.2 1024.7 0.1 ENE 1.8 ENE 0.0 0.0
02:55 19.9 18.0 80.1 1024.7 2.2 E 4.9 ENE 0.0 0.0
03:00 19.8 17.8 80.1 1024.7 2.6 N 5.6 NNW 0.0 0.1
Màxima 21.3 19.3 80.1 1024.9 5.9 E 7.4 ENE 0.0 0.1
Mínima 19.8 17.8 76.2 1024.6
Total 0.0